sensor_id;sensor_type;location;lat;lon;timestamp;P1;durP1;ratioP1;P2;durP2;ratioP2
59974;SDS011;62136;-35.664;-63.766;2022-08-18T00:01:23;1.17;;;0.50;;
59974;SDS011;62136;-35.664;-63.766;2022-08-18T00:03:50;1.13;;;0.50;;
59974;SDS011;62136;-35.664;-63.766;2022-08-18T00:06:17;0.95;;;0.50;;
59974;SDS011;62136;-35.664;-63.766;2022-08-18T00:08:44;0.60;;;0.40;;
59974;SDS011;62136;-35.664;-63.766;2022-08-18T00:11:11;0.60;;;0.50;;
59974;SDS011;62136;-35.664;-63.766;2022-08-18T00:13:39;1.73;;;0.50;;
59974;SDS011;62136;-35.664;-63.766;2022-08-18T00:16:06;3.00;;;0.60;;
59974;SDS011;62136;-35.664;-63.766;2022-08-18T00:18:33;2.45;;;0.50;;
59974;SDS011;62136;-35.664;-63.766;2022-08-18T00:21:00;1.35;;;0.60;;
59974;SDS011;62136;-35.664;-63.766;2022-08-18T00:23:27;2.00;;;0.50;;
59974;SDS011;62136;-35.664;-63.766;2022-08-18T00:25:55;1.30;;;0.47;;
59974;SDS011;62136;-35.664;-63.766;2022-08-18T00:28:24;1.45;;;0.50;;
59974;SDS011;62136;-35.664;-63.766;2022-08-18T00:30:51;0.85;;;0.52;;
59974;SDS011;62136;-35.664;-63.766;2022-08-18T00:33:18;0.90;;;0.50;;
59974;SDS011;62136;-35.664;-63.766;2022-08-18T00:35:47;0.60;;;0.60;;
59974;SDS011;62136;-35.664;-63.766;2022-08-18T00:38:14;2.05;;;0.60;;
59974;SDS011;62136;-35.664;-63.766;2022-08-18T00:40:43;2.03;;;0.50;;
59974;SDS011;62136;-35.664;-63.766;2022-08-18T00:43:15;0.68;;;0.52;;
59974;SDS011;62136;-35.664;-63.766;2022-08-18T00:45:49;0.60;;;0.60;;
59974;SDS011;62136;-35.664;-63.766;2022-08-18T00:48:16;1.27;;;0.60;;
59974;SDS011;62136;-35.664;-63.766;2022-08-18T00:50:57;0.50;;;0.40;;
59974;SDS011;62136;-35.664;-63.766;2022-08-18T00:53:49;1.38;;;0.50;;
59974;SDS011;62136;-35.664;-63.766;2022-08-18T00:56:34;1.92;;;0.70;;
59974;SDS011;62136;-35.664;-63.766;2022-08-18T00:59:06;1.17;;;0.57;;
59974;SDS011;62136;-35.664;-63.766;2022-08-18T01:01:37;0.50;;;0.50;;
59974;SDS011;62136;-35.664;-63.766;2022-08-18T01:04:17;0.55;;;0.40;;
59974;SDS011;62136;-35.664;-63.766;2022-08-18T01:06:55;0.75;;;0.40;;
59974;SDS011;62136;-35.664;-63.766;2022-08-18T01:09:26;0.60;;;0.40;;
59974;SDS011;62136;-35.664;-63.766;2022-08-18T01:11:53;0.60;;;0.52;;
59974;SDS011;62136;-35.664;-63.766;2022-08-18T01:14:21;1.13;;;0.80;;
59974;SDS011;62136;-35.664;-63.766;2022-08-18T01:16:48;0.52;;;0.52;;
59974;SDS011;62136;-35.664;-63.766;2022-08-18T01:19:34;1.65;;;0.60;;
59974;SDS011;62136;-35.664;-63.766;2022-08-18T01:22:28;1.00;;;0.60;;
59974;SDS011;62136;-35.664;-63.766;2022-08-18T01:25:02;0.40;;;0.40;;
59974;SDS011;62136;-35.664;-63.766;2022-08-18T01:27:49;0.40;;;0.40;;
59974;SDS011;62136;-35.664;-63.766;2022-08-18T01:30:17;1.40;;;0.55;;
59974;SDS011;62136;-35.664;-63.766;2022-08-18T01:32:50;2.40;;;0.70;;
59974;SDS011;62136;-35.664;-63.766;2022-08-18T01:35:18;0.50;;;0.50;;
59974;SDS011;62136;-35.664;-63.766;2022-08-18T01:37:50;0.63;;;0.40;;
59974;SDS011;62136;-35.664;-63.766;2022-08-18T01:40:18;0.70;;;0.50;;
59974;SDS011;62136;-35.664;-63.766;2022-08-18T01:42:48;0.30;;;0.30;;
59974;SDS011;62136;-35.664;-63.766;2022-08-18T01:45:16;0.50;;;0.50;;
59974;SDS011;62136;-35.664;-63.766;2022-08-18T01:47:45;0.45;;;0.45;;
59974;SDS011;62136;-35.664;-63.766;2022-08-18T01:50:12;1.02;;;0.35;;
59974;SDS011;62136;-35.664;-63.766;2022-08-18T01:52:39;0.80;;;0.50;;
59974;SDS011;62136;-35.664;-63.766;2022-08-18T01:55:06;0.68;;;0.38;;
59974;SDS011;62136;-35.664;-63.766;2022-08-18T01:57:37;0.40;;;0.30;;
59974;SDS011;62136;-35.664;-63.766;2022-08-18T02:00:07;0.52;;;0.52;;
59974;SDS011;62136;-35.664;-63.766;2022-08-18T02:02:36;0.77;;;0.45;;
59974;SDS011;62136;-35.664;-63.766;2022-08-18T02:05:04;1.20;;;0.40;;
59974;SDS011;62136;-35.664;-63.766;2022-08-18T02:07:59;0.43;;;0.43;;
59974;SDS011;62136;-35.664;-63.766;2022-08-18T02:10:29;1.03;;;0.50;;
59974;SDS011;62136;-35.664;-63.766;2022-08-18T02:12:57;1.63;;;0.52;;
59974;SDS011;62136;-35.664;-63.766;2022-08-18T02:15:24;0.88;;;0.40;;
59974;SDS011;62136;-35.664;-63.766;2022-08-18T02:17:55;0.90;;;0.50;;
59974;SDS011;62136;-35.664;-63.766;2022-08-18T02:20:22;0.77;;;0.40;;
59974;SDS011;62136;-35.664;-63.766;2022-08-18T02:22:52;0.45;;;0.32;;
59974;SDS011;62136;-35.664;-63.766;2022-08-18T02:25:25;0.47;;;0.32;;
59974;SDS011;62136;-35.664;-63.766;2022-08-18T02:27:52;0.93;;;0.60;;
59974;SDS011;62136;-35.664;-63.766;2022-08-18T02:30:19;0.60;;;0.40;;
59974;SDS011;62136;-35.664;-63.766;2022-08-18T02:32:47;0.90;;;0.43;;
59974;SDS011;62136;-35.664;-63.766;2022-08-18T02:35:14;0.38;;;0.38;;
59974;SDS011;62136;-35.664;-63.766;2022-08-18T02:37:42;1.38;;;0.55;;
59974;SDS011;62136;-35.664;-63.766;2022-08-18T02:40:12;0.70;;;0.30;;
59974;SDS011;62136;-35.664;-63.766;2022-08-18T02:42:40;0.60;;;0.30;;
59974;SDS011;62136;-35.664;-63.766;2022-08-18T02:45:09;0.40;;;0.40;;
59974;SDS011;62136;-35.664;-63.766;2022-08-18T02:47:37;0.50;;;0.40;;
59974;SDS011;62136;-35.664;-63.766;2022-08-18T02:50:05;0.50;;;0.50;;
59974;SDS011;62136;-35.664;-63.766;2022-08-18T02:52:35;0.50;;;0.45;;
59974;SDS011;62136;-35.664;-63.766;2022-08-18T02:55:02;1.33;;;0.38;;
59974;SDS011;62136;-35.664;-63.766;2022-08-18T02:57:30;0.88;;;0.30;;
59974;SDS011;62136;-35.664;-63.766;2022-08-18T02:59:58;0.60;;;0.50;;
59974;SDS011;62136;-35.664;-63.766;2022-08-18T03:02:25;0.65;;;0.30;;
59974;SDS011;62136;-35.664;-63.766;2022-08-18T03:04:56;0.80;;;0.43;;
59974;SDS011;62136;-35.664;-63.766;2022-08-18T03:07:26;0.40;;;0.40;;
59974;SDS011;62136;-35.664;-63.766;2022-08-18T03:09:53;0.40;;;0.32;;
59974;SDS011;62136;-35.664;-63.766;2022-08-18T03:12:20;0.30;;;0.30;;
59974;SDS011;62136;-35.664;-63.766;2022-08-18T03:14:55;0.50;;;0.40;;
59974;SDS011;62136;-35.664;-63.766;2022-08-18T03:17:29;0.40;;;0.35;;
59974;SDS011;62136;-35.664;-63.766;2022-08-18T03:20:03;0.37;;;0.37;;
59974;SDS011;62136;-35.664;-63.766;2022-08-18T03:22:31;0.77;;;0.25;;
59974;SDS011;62136;-35.664;-63.766;2022-08-18T03:24:58;0.90;;;0.47;;
59974;SDS011;62136;-35.664;-63.766;2022-08-18T03:27:25;0.30;;;0.30;;
59974;SDS011;62136;-35.664;-63.766;2022-08-18T03:29:52;0.82;;;0.40;;
59974;SDS011;62136;-35.664;-63.766;2022-08-18T03:32:20;0.40;;;0.30;;
59974;SDS011;62136;-35.664;-63.766;2022-08-18T03:34:47;0.85;;;0.47;;
59974;SDS011;62136;-35.664;-63.766;2022-08-18T03:37:14;0.30;;;0.30;;
59974;SDS011;62136;-35.664;-63.766;2022-08-18T03:39:41;0.30;;;0.22;;
59974;SDS011;62136;-35.664;-63.766;2022-08-18T03:42:08;0.22;;;0.22;;
59974;SDS011;62136;-35.664;-63.766;2022-08-18T03:44:35;0.40;;;0.30;;
59974;SDS011;62136;-35.664;-63.766;2022-08-18T03:47:03;0.30;;;0.30;;
59974;SDS011;62136;-35.664;-63.766;2022-08-18T03:49:34;0.30;;;0.30;;
59974;SDS011;62136;-35.664;-63.766;2022-08-18T03:52:03;0.30;;;0.30;;
59974;SDS011;62136;-35.664;-63.766;2022-08-18T03:54:34;0.20;;;0.20;;
59974;SDS011;62136;-35.664;-63.766;2022-08-18T03:57:03;0.40;;;0.40;;
59974;SDS011;62136;-35.664;-63.766;2022-08-18T03:59:32;0.40;;;0.40;;
59974;SDS011;62136;-35.664;-63.766;2022-08-18T04:02:01;0.45;;;0.40;;
59974;SDS011;62136;-35.664;-63.766;2022-08-18T04:04:29;0.30;;;0.30;;
59974;SDS011;62136;-35.664;-63.766;2022-08-18T04:06:58;0.60;;;0.30;;
59974;SDS011;62136;-35.664;-63.766;2022-08-18T04:09:33;0.30;;;0.30;;
59974;SDS011;62136;-35.664;-63.766;2022-08-18T04:12:05;0.20;;;0.20;;
59974;SDS011;62136;-35.664;-63.766;2022-08-18T04:14:39;1.35;;;0.30;;
59974;SDS011;62136;-35.664;-63.766;2022-08-18T04:17:08;0.30;;;0.30;;
59974;SDS011;62136;-35.664;-63.766;2022-08-18T04:19:35;0.20;;;0.20;;
59974;SDS011;62136;-35.664;-63.766;2022-08-18T04:22:02;0.30;;;0.30;;
59974;SDS011;62136;-35.664;-63.766;2022-08-18T04:24:31;0.75;;;0.30;;
59974;SDS011;62136;-35.664;-63.766;2022-08-18T04:26:59;0.30;;;0.30;;
59974;SDS011;62136;-35.664;-63.766;2022-08-18T04:29:29;0.22;;;0.22;;
59974;SDS011;62136;-35.664;-63.766;2022-08-18T04:31:58;0.30;;;0.30;;
59974;SDS011;62136;-35.664;-63.766;2022-08-18T04:34:30;0.40;;;0.22;;
59974;SDS011;62136;-35.664;-63.766;2022-08-18T04:36:59;0.22;;;0.22;;
59974;SDS011;62136;-35.664;-63.766;2022-08-18T04:39:26;0.45;;;0.20;;
59974;SDS011;62136;-35.664;-63.766;2022-08-18T04:41:54;0.22;;;0.22;;
59974;SDS011;62136;-35.664;-63.766;2022-08-18T04:44:26;1.05;;;0.20;;
59974;SDS011;62136;-35.664;-63.766;2022-08-18T04:46:53;0.22;;;0.22;;
59974;SDS011;62136;-35.664;-63.766;2022-08-18T04:49:24;0.20;;;0.20;;
59974;SDS011;62136;-35.664;-63.766;2022-08-18T04:51:56;0.50;;;0.30;;
59974;SDS011;62136;-35.664;-63.766;2022-08-18T04:54:42;0.30;;;0.30;;
59974;SDS011;62136;-35.664;-63.766;2022-08-18T04:57:13;0.20;;;0.20;;
59974;SDS011;62136;-35.664;-63.766;2022-08-18T04:59:42;0.20;;;0.20;;
59974;SDS011;62136;-35.664;-63.766;2022-08-18T05:02:11;0.28;;;0.22;;
59974;SDS011;62136;-35.664;-63.766;2022-08-18T05:04:40;0.30;;;0.30;;
59974;SDS011;62136;-35.664;-63.766;2022-08-18T05:07:12;0.30;;;0.30;;
59974;SDS011;62136;-35.664;-63.766;2022-08-18T05:09:41;0.30;;;0.30;;
59974;SDS011;62136;-35.664;-63.766;2022-08-18T05:12:09;0.45;;;0.30;;
59974;SDS011;62136;-35.664;-63.766;2022-08-18T05:14:42;0.20;;;0.20;;
59974;SDS011;62136;-35.664;-63.766;2022-08-18T05:17:10;0.20;;;0.20;;
59974;SDS011;62136;-35.664;-63.766;2022-08-18T05:19:39;0.20;;;0.20;;
59974;SDS011;62136;-35.664;-63.766;2022-08-18T05:22:08;0.30;;;0.30;;
59974;SDS011;62136;-35.664;-63.766;2022-08-18T05:24:38;0.77;;;0.30;;
59974;SDS011;62136;-35.664;-63.766;2022-08-18T05:27:05;0.28;;;0.28;;
59974;SDS011;62136;-35.664;-63.766;2022-08-18T05:29:33;0.13;;;0.13;;
59974;SDS011;62136;-35.664;-63.766;2022-08-18T05:32:01;0.20;;;0.20;;
59974;SDS011;62136;-35.664;-63.766;2022-08-18T05:34:32;0.30;;;0.30;;
59974;SDS011;62136;-35.664;-63.766;2022-08-18T05:37:03;0.30;;;0.30;;
59974;SDS011;62136;-35.664;-63.766;2022-08-18T05:39:51;0.20;;;0.20;;
59974;SDS011;62136;-35.664;-63.766;2022-08-18T05:42:26;0.20;;;0.20;;
59974;SDS011;62136;-35.664;-63.766;2022-08-18T05:44:55;0.20;;;0.20;;
59974;SDS011;62136;-35.664;-63.766;2022-08-18T05:49:52;0.22;;;0.22;;
59974;SDS011;62136;-35.664;-63.766;2022-08-18T05:55:09;0.30;;;0.30;;
59974;SDS011;62136;-35.664;-63.766;2022-08-18T05:58:23;0.32;;;0.20;;
59974;SDS011;62136;-35.664;-63.766;2022-08-18T06:00:56;0.32;;;0.22;;
59974;SDS011;62136;-35.664;-63.766;2022-08-18T06:03:42;0.22;;;0.20;;
59974;SDS011;62136;-35.664;-63.766;2022-08-18T06:06:18;0.30;;;0.30;;
59974;SDS011;62136;-35.664;-63.766;2022-08-18T06:09:09;0.20;;;0.20;;
59974;SDS011;62136;-35.664;-63.766;2022-08-18T06:11:47;0.90;;;0.50;;
59974;SDS011;62136;-35.664;-63.766;2022-08-18T06:14:15;1.25;;;0.20;;
59974;SDS011;62136;-35.664;-63.766;2022-08-18T06:22:11;0.20;;;0.20;;
59974;SDS011;62136;-35.664;-63.766;2022-08-18T06:28:06;0.20;;;0.20;;
59974;SDS011;62136;-35.664;-63.766;2022-08-18T06:33:42;0.43;;;0.20;;
59974;SDS011;62136;-35.664;-63.766;2022-08-18T06:36:26;0.20;;;0.20;;
59974;SDS011;62136;-35.664;-63.766;2022-08-18T06:41:49;0.40;;;0.20;;
59974;SDS011;62136;-35.664;-63.766;2022-08-18T06:49:49;0.20;;;0.20;;
59974;SDS011;62136;-35.664;-63.766;2022-08-18T06:52:31;0.20;;;0.20;;
59974;SDS011;62136;-35.664;-63.766;2022-08-18T06:55:11;0.30;;;0.20;;
59974;SDS011;62136;-35.664;-63.766;2022-08-18T06:57:52;0.20;;;0.20;;
59974;SDS011;62136;-35.664;-63.766;2022-08-18T07:00:23;0.43;;;0.20;;
59974;SDS011;62136;-35.664;-63.766;2022-08-18T07:02:56;0.20;;;0.20;;
59974;SDS011;62136;-35.664;-63.766;2022-08-18T07:05:38;0.20;;;0.20;;
59974;SDS011;62136;-35.664;-63.766;2022-08-18T07:13:48;0.20;;;0.20;;
59974;SDS011;62136;-35.664;-63.766;2022-08-18T07:18:50;0.20;;;0.20;;
59974;SDS011;62136;-35.664;-63.766;2022-08-18T07:21:28;0.30;;;0.30;;
59974;SDS011;62136;-35.664;-63.766;2022-08-18T07:23:58;0.20;;;0.20;;
59974;SDS011;62136;-35.664;-63.766;2022-08-18T07:26:29;0.20;;;0.20;;
59974;SDS011;62136;-35.664;-63.766;2022-08-18T07:29:16;0.20;;;0.20;;
59974;SDS011;62136;-35.664;-63.766;2022-08-18T07:31:47;0.20;;;0.20;;
59974;SDS011;62136;-35.664;-63.766;2022-08-18T07:36:58;0.20;;;0.20;;
59974;SDS011;62136;-35.664;-63.766;2022-08-18T07:39:35;0.20;;;0.20;;
59974;SDS011;62136;-35.664;-63.766;2022-08-18T07:43:11;0.30;;;0.30;;
59974;SDS011;62136;-35.664;-63.766;2022-08-18T07:45:17;0.20;;;0.20;;
59974;SDS011;62136;-35.664;-63.766;2022-08-18T07:47:56;0.20;;;0.20;;
59974;SDS011;62136;-35.664;-63.766;2022-08-18T07:50:28;0.20;;;0.20;;
59974;SDS011;62136;-35.664;-63.766;2022-08-18T07:53:40;0.20;;;0.20;;
59974;SDS011;62136;-35.664;-63.766;2022-08-18T07:58:57;0.20;;;0.20;;
59974;SDS011;62136;-35.664;-63.766;2022-08-18T08:04:41;0.20;;;0.20;;
59974;SDS011;62136;-35.664;-63.766;2022-08-18T08:07:15;0.20;;;0.20;;
59974;SDS011;62136;-35.664;-63.766;2022-08-18T08:10:07;0.20;;;0.20;;
59974;SDS011;62136;-35.664;-63.766;2022-08-18T08:15:53;0.30;;;0.20;;
59974;SDS011;62136;-35.664;-63.766;2022-08-18T08:21:13;0.20;;;0.20;;
59974;SDS011;62136;-35.664;-63.766;2022-08-18T08:26:41;0.20;;;0.20;;
59974;SDS011;62136;-35.664;-63.766;2022-08-18T08:35:33;0.25;;;0.20;;
59974;SDS011;62136;-35.664;-63.766;2022-08-18T08:40:17;0.20;;;0.20;;
59974;SDS011;62136;-35.664;-63.766;2022-08-18T08:45:41;0.30;;;0.20;;
59974;SDS011;62136;-35.664;-63.766;2022-08-18T08:48:17;0.20;;;0.20;;
59974;SDS011;62136;-35.664;-63.766;2022-08-18T08:53:37;0.20;;;0.20;;
59974;SDS011;62136;-35.664;-63.766;2022-08-18T08:56:15;0.20;;;0.20;;
59974;SDS011;62136;-35.664;-63.766;2022-08-18T08:58:48;0.20;;;0.20;;
59974;SDS011;62136;-35.664;-63.766;2022-08-18T09:09:46;0.20;;;0.20;;
59974;SDS011;62136;-35.664;-63.766;2022-08-18T09:12:34;0.20;;;0.20;;
59974;SDS011;62136;-35.664;-63.766;2022-08-18T09:20:57;0.20;;;0.20;;
59974;SDS011;62136;-35.664;-63.766;2022-08-18T09:23:45;0.20;;;0.20;;
59974;SDS011;62136;-35.664;-63.766;2022-08-18T09:31:48;0.30;;;0.30;;
59974;SDS011;62136;-35.664;-63.766;2022-08-18T09:37:58;0.20;;;0.20;;
59974;SDS011;62136;-35.664;-63.766;2022-08-18T09:40:53;0.57;;;0.20;;
59974;SDS011;62136;-35.664;-63.766;2022-08-18T09:51:54;0.20;;;0.20;;
59974;SDS011;62136;-35.664;-63.766;2022-08-18T09:54:28;0.20;;;0.20;;
59974;SDS011;62136;-35.664;-63.766;2022-08-18T10:03:00;0.20;;;0.20;;
59974;SDS011;62136;-35.664;-63.766;2022-08-18T10:05:25;0.20;;;0.20;;
59974;SDS011;62136;-35.664;-63.766;2022-08-18T10:19:03;0.10;;;0.10;;
59974;SDS011;62136;-35.664;-63.766;2022-08-18T10:28:03;0.30;;;0.30;;
59974;SDS011;62136;-35.664;-63.766;2022-08-18T10:33:00;0.17;;;0.17;;
59974;SDS011;62136;-35.664;-63.766;2022-08-18T10:43:45;0.20;;;0.20;;
59974;SDS011;62136;-35.664;-63.766;2022-08-18T10:46:15;0.20;;;0.20;;
59974;SDS011;62136;-35.664;-63.766;2022-08-18T10:52:05;0.20;;;0.20;;
59974;SDS011;62136;-35.664;-63.766;2022-08-18T10:54:43;0.57;;;0.57;;
59974;SDS011;62136;-35.664;-63.766;2022-08-18T11:00:12;0.73;;;0.70;;
59974;SDS011;62136;-35.664;-63.766;2022-08-18T11:05:25;0.70;;;0.70;;
59974;SDS011;62136;-35.664;-63.766;2022-08-18T11:07:56;0.73;;;0.50;;
59974;SDS011;62136;-35.664;-63.766;2022-08-18T11:14:12;0.60;;;0.60;;
59974;SDS011;62136;-35.664;-63.766;2022-08-18T11:16:35;0.50;;;0.50;;
59974;SDS011;62136;-35.664;-63.766;2022-08-18T11:19:10;1.40;;;0.60;;
59974;SDS011;62136;-35.664;-63.766;2022-08-18T11:21:40;0.60;;;0.60;;
59974;SDS011;62136;-35.664;-63.766;2022-08-18T11:24:18;1.65;;;0.50;;
59974;SDS011;62136;-35.664;-63.766;2022-08-18T11:26:47;0.65;;;0.60;;
59974;SDS011;62136;-35.664;-63.766;2022-08-18T11:29:23;0.80;;;0.80;;
59974;SDS011;62136;-35.664;-63.766;2022-08-18T11:34:48;1.13;;;0.80;;
59974;SDS011;62136;-35.664;-63.766;2022-08-18T11:37:31;1.00;;;0.90;;
59974;SDS011;62136;-35.664;-63.766;2022-08-18T11:40:01;0.80;;;0.80;;
59974;SDS011;62136;-35.664;-63.766;2022-08-18T11:42:33;1.00;;;0.80;;
59974;SDS011;62136;-35.664;-63.766;2022-08-18T11:47:36;0.73;;;0.70;;
59974;SDS011;62136;-35.664;-63.766;2022-08-18T11:50:25;0.90;;;0.90;;
59974;SDS011;62136;-35.664;-63.766;2022-08-18T11:52:53;0.70;;;0.70;;
59974;SDS011;62136;-35.664;-63.766;2022-08-18T11:55:28;1.25;;;0.70;;
59974;SDS011;62136;-35.664;-63.766;2022-08-18T11:57:59;0.90;;;0.63;;
59974;SDS011;62136;-35.664;-63.766;2022-08-18T12:05:50;1.00;;;0.90;;
59974;SDS011;62136;-35.664;-63.766;2022-08-18T12:08:29;2.45;;;0.90;;
59974;SDS011;62136;-35.664;-63.766;2022-08-18T12:11:06;1.10;;;1.05;;
59974;SDS011;62136;-35.664;-63.766;2022-08-18T12:13:47;1.17;;;0.90;;
59974;SDS011;62136;-35.664;-63.766;2022-08-18T12:16:32;0.85;;;0.85;;
59974;SDS011;62136;-35.664;-63.766;2022-08-18T12:19:02;1.75;;;0.90;;
59974;SDS011;62136;-35.664;-63.766;2022-08-18T12:21:31;2.03;;;0.85;;
59974;SDS011;62136;-35.664;-63.766;2022-08-18T12:23:58;1.17;;;0.95;;
59974;SDS011;62136;-35.664;-63.766;2022-08-18T12:26:28;1.02;;;1.00;;
59974;SDS011;62136;-35.664;-63.766;2022-08-18T12:28:55;2.25;;;0.98;;
59974;SDS011;62136;-35.664;-63.766;2022-08-18T12:31:22;0.82;;;0.82;;
59974;SDS011;62136;-35.664;-63.766;2022-08-18T12:33:49;1.63;;;1.40;;
59974;SDS011;62136;-35.664;-63.766;2022-08-18T12:36:16;1.48;;;1.20;;
59974;SDS011;62136;-35.664;-63.766;2022-08-18T12:38:52;1.83;;;1.60;;
59974;SDS011;62136;-35.664;-63.766;2022-08-18T12:41:20;2.00;;;1.50;;
59974;SDS011;62136;-35.664;-63.766;2022-08-18T12:43:48;1.50;;;1.40;;
59974;SDS011;62136;-35.664;-63.766;2022-08-18T12:46:15;2.97;;;2.20;;
59974;SDS011;62136;-35.664;-63.766;2022-08-18T12:48:42;4.00;;;3.30;;
59974;SDS011;62136;-35.664;-63.766;2022-08-18T12:51:09;5.63;;;5.05;;
59974;SDS011;62136;-35.664;-63.766;2022-08-18T12:53:38;7.07;;;6.00;;
59974;SDS011;62136;-35.664;-63.766;2022-08-18T12:56:07;9.68;;;6.40;;
59974;SDS011;62136;-35.664;-63.766;2022-08-18T12:58:55;7.43;;;5.85;;
59974;SDS011;62136;-35.664;-63.766;2022-08-18T13:01:25;7.32;;;6.60;;
59974;SDS011;62136;-35.664;-63.766;2022-08-18T13:03:54;8.20;;;7.20;;
59974;SDS011;62136;-35.664;-63.766;2022-08-18T13:06:24;8.57;;;6.25;;
59974;SDS011;62136;-35.664;-63.766;2022-08-18T13:08:51;9.93;;;8.65;;
59974;SDS011;62136;-35.664;-63.766;2022-08-18T13:11:22;11.25;;;10.02;;
59974;SDS011;62136;-35.664;-63.766;2022-08-18T13:13:50;16.25;;;14.63;;
59974;SDS011;62136;-35.664;-63.766;2022-08-18T13:16:18;16.20;;;13.77;;
59974;SDS011;62136;-35.664;-63.766;2022-08-18T13:18:46;13.43;;;12.18;;
59974;SDS011;62136;-35.664;-63.766;2022-08-18T13:21:14;14.10;;;12.63;;
59974;SDS011;62136;-35.664;-63.766;2022-08-18T13:23:43;15.00;;;11.68;;
59974;SDS011;62136;-35.664;-63.766;2022-08-18T13:26:22;13.73;;;10.77;;
59974;SDS011;62136;-35.664;-63.766;2022-08-18T13:28:52;11.73;;;10.57;;
59974;SDS011;62136;-35.664;-63.766;2022-08-18T13:31:20;12.25;;;10.38;;
59974;SDS011;62136;-35.664;-63.766;2022-08-18T13:33:47;13.75;;;12.30;;
59974;SDS011;62136;-35.664;-63.766;2022-08-18T13:36:15;14.32;;;12.27;;
59974;SDS011;62136;-35.664;-63.766;2022-08-18T13:38:42;14.32;;;13.05;;
59974;SDS011;62136;-35.664;-63.766;2022-08-18T13:41:10;13.75;;;12.43;;
59974;SDS011;62136;-35.664;-63.766;2022-08-18T13:43:40;19.85;;;18.08;;
59974;SDS011;62136;-35.664;-63.766;2022-08-18T13:46:13;27.33;;;24.95;;
59974;SDS011;62136;-35.664;-63.766;2022-08-18T13:48:41;32.42;;;29.75;;
59974;SDS011;62136;-35.664;-63.766;2022-08-18T13:51:21;32.17;;;29.75;;
59974;SDS011;62136;-35.664;-63.766;2022-08-18T13:53:49;28.95;;;26.55;;
59974;SDS011;62136;-35.664;-63.766;2022-08-18T13:56:17;28.80;;;26.50;;
59974;SDS011;62136;-35.664;-63.766;2022-08-18T13:58:45;36.15;;;33.28;;
59974;SDS011;62136;-35.664;-63.766;2022-08-18T14:01:13;33.03;;;30.40;;
59974;SDS011;62136;-35.664;-63.766;2022-08-18T14:03:40;30.60;;;28.10;;
59974;SDS011;62136;-35.664;-63.766;2022-08-18T14:06:08;30.30;;;27.80;;
59974;SDS011;62136;-35.664;-63.766;2022-08-18T14:08:36;28.70;;;26.50;;
59974;SDS011;62136;-35.664;-63.766;2022-08-18T14:11:03;28.83;;;26.63;;
59974;SDS011;62136;-35.664;-63.766;2022-08-18T14:13:30;27.15;;;25.23;;
59974;SDS011;62136;-35.664;-63.766;2022-08-18T14:15:58;24.23;;;22.27;;
59974;SDS011;62136;-35.664;-63.766;2022-08-18T14:18:26;22.65;;;20.92;;
59974;SDS011;62136;-35.664;-63.766;2022-08-18T14:20:54;20.20;;;18.50;;
59974;SDS011;62136;-35.664;-63.766;2022-08-18T14:23:51;18.52;;;17.05;;
59974;SDS011;62136;-35.664;-63.766;2022-08-18T14:26:36;19.75;;;18.05;;
59974;SDS011;62136;-35.664;-63.766;2022-08-18T14:29:15;19.45;;;17.95;;
59974;SDS011;62136;-35.664;-63.766;2022-08-18T14:31:43;19.98;;;18.38;;
59974;SDS011;62136;-35.664;-63.766;2022-08-18T14:34:11;20.45;;;18.58;;
59974;SDS011;62136;-35.664;-63.766;2022-08-18T14:36:38;17.25;;;15.95;;
59974;SDS011;62136;-35.664;-63.766;2022-08-18T14:39:08;17.80;;;16.40;;
59974;SDS011;62136;-35.664;-63.766;2022-08-18T14:41:35;15.60;;;14.50;;
59974;SDS011;62136;-35.664;-63.766;2022-08-18T14:44:03;12.93;;;12.02;;
59974;SDS011;62136;-35.664;-63.766;2022-08-18T14:46:31;13.93;;;12.82;;
59974;SDS011;62136;-35.664;-63.766;2022-08-18T14:48:59;14.23;;;13.13;;
59974;SDS011;62136;-35.664;-63.766;2022-08-18T14:51:26;14.65;;;13.43;;
59974;SDS011;62136;-35.664;-63.766;2022-08-18T14:53:54;13.27;;;12.27;;
59974;SDS011;62136;-35.664;-63.766;2022-08-18T14:56:21;14.27;;;13.02;;
59974;SDS011;62136;-35.664;-63.766;2022-08-18T14:58:48;14.88;;;13.60;;
59974;SDS011;62136;-35.664;-63.766;2022-08-18T15:01:16;11.52;;;10.73;;
59974;SDS011;62136;-35.664;-63.766;2022-08-18T15:03:43;9.68;;;8.75;;
59974;SDS011;62136;-35.664;-63.766;2022-08-18T15:06:10;8.13;;;7.53;;
59974;SDS011;62136;-35.664;-63.766;2022-08-18T15:08:38;7.30;;;6.55;;
59974;SDS011;62136;-35.664;-63.766;2022-08-18T15:11:05;6.00;;;5.40;;
59974;SDS011;62136;-35.664;-63.766;2022-08-18T15:13:34;6.13;;;5.63;;
59974;SDS011;62136;-35.664;-63.766;2022-08-18T15:16:06;7.07;;;5.63;;
59974;SDS011;62136;-35.664;-63.766;2022-08-18T15:18:38;6.70;;;6.10;;
59974;SDS011;62136;-35.664;-63.766;2022-08-18T15:21:06;6.43;;;5.82;;
59974;SDS011;62136;-35.664;-63.766;2022-08-18T15:23:52;7.25;;;6.25;;
59974;SDS011;62136;-35.664;-63.766;2022-08-18T15:26:45;8.18;;;6.63;;
59974;SDS011;62136;-35.664;-63.766;2022-08-18T15:29:13;6.90;;;6.28;;
59974;SDS011;62136;-35.664;-63.766;2022-08-18T15:31:40;7.43;;;6.72;;
59974;SDS011;62136;-35.664;-63.766;2022-08-18T15:34:09;6.35;;;5.72;;
59974;SDS011;62136;-35.664;-63.766;2022-08-18T15:36:38;12.73;;;6.80;;
59974;SDS011;62136;-35.664;-63.766;2022-08-18T15:39:06;9.68;;;6.35;;
59974;SDS011;62136;-35.664;-63.766;2022-08-18T15:41:34;6.65;;;5.88;;
59974;SDS011;62136;-35.664;-63.766;2022-08-18T15:44:15;6.10;;;5.55;;
59974;SDS011;62136;-35.664;-63.766;2022-08-18T15:46:44;7.07;;;5.43;;
59974;SDS011;62136;-35.664;-63.766;2022-08-18T15:49:12;7.43;;;5.63;;
59974;SDS011;62136;-35.664;-63.766;2022-08-18T15:51:40;6.38;;;5.00;;
59974;SDS011;62136;-35.664;-63.766;2022-08-18T15:54:08;5.20;;;4.70;;
59974;SDS011;62136;-35.664;-63.766;2022-08-18T15:56:36;5.95;;;5.15;;
59974;SDS011;62136;-35.664;-63.766;2022-08-18T15:59:04;17.63;;;9.95;;
59974;SDS011;62136;-35.664;-63.766;2022-08-18T16:01:34;31.45;;;17.73;;
59974;SDS011;62136;-35.664;-63.766;2022-08-18T16:04:05;21.48;;;11.32;;
59974;SDS011;62136;-35.664;-63.766;2022-08-18T16:06:33;18.58;;;11.88;;
59974;SDS011;62136;-35.664;-63.766;2022-08-18T16:09:05;20.77;;;10.85;;
59974;SDS011;62136;-35.664;-63.766;2022-08-18T16:11:33;12.20;;;8.05;;
59974;SDS011;62136;-35.664;-63.766;2022-08-18T16:14:01;16.13;;;9.93;;
59974;SDS011;62136;-35.664;-63.766;2022-08-18T16:16:28;13.23;;;8.60;;
59974;SDS011;62136;-35.664;-63.766;2022-08-18T16:18:55;14.70;;;8.02;;
59974;SDS011;62136;-35.664;-63.766;2022-08-18T16:21:22;18.25;;;9.70;;
59974;SDS011;62136;-35.664;-63.766;2022-08-18T16:23:50;19.52;;;9.45;;
59974;SDS011;62136;-35.664;-63.766;2022-08-18T16:26:20;15.40;;;8.98;;
59974;SDS011;62136;-35.664;-63.766;2022-08-18T16:28:48;17.90;;;9.43;;
59974;SDS011;62136;-35.664;-63.766;2022-08-18T16:31:17;15.55;;;9.45;;
59974;SDS011;62136;-35.664;-63.766;2022-08-18T16:33:52;18.27;;;9.85;;
59974;SDS011;62136;-35.664;-63.766;2022-08-18T16:36:21;18.98;;;10.35;;
59974;SDS011;62136;-35.664;-63.766;2022-08-18T16:38:52;19.58;;;9.98;;
59974;SDS011;62136;-35.664;-63.766;2022-08-18T16:41:20;17.33;;;9.82;;
59974;SDS011;62136;-35.664;-63.766;2022-08-18T16:43:47;16.05;;;9.85;;
59974;SDS011;62136;-35.664;-63.766;2022-08-18T16:46:16;17.83;;;9.68;;
59974;SDS011;62136;-35.664;-63.766;2022-08-18T16:48:47;16.73;;;9.63;;
59974;SDS011;62136;-35.664;-63.766;2022-08-18T16:51:16;16.55;;;8.35;;
59974;SDS011;62136;-35.664;-63.766;2022-08-18T16:53:46;14.50;;;7.75;;
59974;SDS011;62136;-35.664;-63.766;2022-08-18T16:56:17;14.70;;;7.28;;
59974;SDS011;62136;-35.664;-63.766;2022-08-18T16:58:49;12.18;;;8.32;;
59974;SDS011;62136;-35.664;-63.766;2022-08-18T17:01:35;11.88;;;7.10;;
59974;SDS011;62136;-35.664;-63.766;2022-08-18T17:04:23;11.75;;;7.65;;